Time;durP1;ratioP1;P1;durP2;ratioP2;P2;SDS_P1;SDS_P2;PMS_P1;PMS_P2;Temp;Humidity;BMP_temperature;BMP_pressure;BME280_temperature;BME280_humidity;BME280_pressure;Samples;Min_cycle;Max_cycle;Signal;HPM_P1;HPM_P2
2020/12/16 00:00:09;;;;;;;0.30;0.30;;;;;;;7.18;89.90;100088.81;5082732;28;20093;-70
2020/12/16 00:02:39;;;;;;;0.30;0.30;;;;;;;7.16;89.73;100079.31;5084437;28;20048;-70
2020/12/16 00:05:06;;;;;;;0.30;0.30;;;;;;;7.14;89.71;100084.47;5086730;28;20500;-70
2020/12/16 00:07:32;;;;;;;0.38;0.38;;;;;;;7.16;89.55;100089.66;5086508;28;20037;-70
2020/12/16 00:09:57;;;;;;;0.50;0.50;;;;;;;7.14;89.80;100087.06;5086101;28;20089;-69
2020/12/16 00:12:23;;;;;;;0.30;0.30;;;;;;;7.11;89.78;100087.06;5086423;28;20021;-70
2020/12/16 00:14:48;;;;;;;0.30;0.30;;;;;;;7.12;89.84;100091.38;5086049;28;20025;-69
2020/12/16 00:17:14;;;;;;;0.50;0.50;;;;;;;7.10;89.83;100085.34;5086005;28;20020;-70
2020/12/16 00:19:41;;;;;;;0.30;0.30;;;;;;;7.10;89.79;100092.22;5085915;28;20016;-70
2020/12/16 00:22:07;;;;;;;0.30;0.30;;;;;;;7.09;89.70;100088.81;5086606;28;20020;-70
2020/12/16 00:24:32;;;;;;;0.40;0.40;;;;;;;7.10;89.62;100089.66;5086080;28;20052;-71
2020/12/16 00:26:57;;;;;;;45.38;2.70;;;;;;;7.06;89.89;100094.81;5086170;28;20017;-71
2020/12/16 00:29:23;;;;;;;0.43;0.43;;;;;;;7.04;89.70;100093.97;5084512;28;20020;-71
2020/12/16 00:31:48;;;;;;;1.95;1.85;;;;;;;7.04;89.68;100085.34;5085720;28;20024;-72
2020/12/16 00:34:14;;;;;;;0.30;0.30;;;;;;;7.05;89.87;100092.22;5085544;28;20380;-71
2020/12/16 00:36:40;;;;;;;0.30;0.30;;;;;;;7.06;89.88;100101.72;5085921;28;20072;-71
2020/12/16 00:39:08;;;;;;;0.30;0.30;;;;;;;7.02;89.91;100102.53;5085580;28;20108;-71
2020/12/16 00:41:34;;;;;;;0.30;0.30;;;;;;;7.03;89.70;100105.13;5085734;28;20100;-71
2020/12/16 00:44:00;;;;;;;0.30;0.30;;;;;;;7.02;89.65;100107.72;5086132;28;20570;-70
2020/12/16 00:46:25;;;;;;;0.30;0.30;;;;;;;6.96;89.86;100110.28;5086082;28;20074;-71
2020/12/16 00:48:51;;;;;;;0.30;0.30;;;;;;;6.89;89.68;100106.81;5085738;28;20016;-71
2020/12/16 00:51:16;;;;;;;0.32;0.32;;;;;;;6.93;89.88;100124.91;5086114;28;20028;-71
2020/12/16 00:53:42;;;;;;;0.30;0.30;;;;;;;6.88;90.07;100125.75;5086012;28;20088;-71
2020/12/16 00:56:07;;;;;;;0.40;0.40;;;;;;;6.94;89.82;100126.63;5085843;28;20059;-71
2020/12/16 00:58:32;;;;;;;0.30;0.30;;;;;;;6.96;89.84;100133.50;5085797;28;20044;-70
2020/12/16 01:00:58;;;;;;;0.28;0.28;;;;;;;6.94;89.96;100136.97;5085813;28;20031;-71
2020/12/16 01:03:23;;;;;;;1.67;1.58;;;;;;;6.96;89.79;100138.66;5085357;28;20039;-71
2020/12/16 01:05:49;;;;;;;0.43;0.43;;;;;;;6.96;89.60;100138.66;5084525;28;20647;-70
2020/12/16 01:08:14;;;;;;;2.60;2.42;;;;;;;6.97;89.56;100136.09;5085654;28;20068;-71
2020/12/16 01:10:39;;;;;;;0.60;0.60;;;;;;;6.96;89.71;100134.38;5085527;28;20052;-72
2020/12/16 01:13:05;;;;;;;0.40;0.40;;;;;;;6.97;89.91;100140.38;5085763;28;20036;-72
2020/12/16 01:15:30;;;;;;;0.30;0.30;;;;;;;7.02;89.70;100142.13;5085348;28;20298;-71
2020/12/16 01:17:55;;;;;;;0.30;0.30;;;;;;;7.09;89.77;100152.47;5083930;28;20023;-71
2020/12/16 01:20:21;;;;;;;0.20;0.20;;;;;;;7.03;89.44;100150.72;5085550;28;20054;-71
2020/12/16 01:22:48;;;;;;;0.68;0.68;;;;;;;7.04;89.69;100157.63;5085610;28;20043;-71
2020/12/16 01:25:18;;;;;;;2.22;2.08;;;;;;;7.01;89.34;100162.78;5085676;28;20032;-72
2020/12/16 01:27:44;;;;;;;0.63;0.63;;;;;;;6.95;89.55;100150.72;5086054;28;20025;-71
2020/12/16 01:30:10;;;;;;;0.77;0.77;;;;;;;6.97;89.47;100155.88;5089683;28;20010;-71
2020/12/16 01:32:37;;;;;;;0.30;0.30;;;;;;;6.97;89.54;100161.91;5096667;28;20020;-70
2020/12/16 01:35:12;;;;;;;1.95;1.85;;;;;;;6.99;89.49;100165.38;5097718;28;20024;-71
2020/12/16 01:37:38;;;;;;;0.30;0.30;;;;;;;6.96;89.18;100162.78;5097057;28;20017;-71
2020/12/16 01:40:05;;;;;;;0.30;0.30;;;;;;;6.92;89.38;100164.47;5084593;28;20059;-70
2020/12/16 01:42:31;;;;;;;0.40;0.40;;;;;;;6.93;89.14;100160.19;5084021;28;20024;-70
2020/12/16 01:44:57;;;;;;;0.90;0.90;;;;;;;6.91;89.42;100167.06;5084982;28;20025;-69
2020/12/16 01:47:23;;;;;;;1.20;1.20;;;;;;;6.90;89.46;100166.19;5084327;28;20039;-71
2020/12/16 01:49:48;;;;;;;0.30;0.30;;;;;;;6.94;89.41;100169.66;5084478;28;20020;-72
2020/12/16 01:52:19;;;;;;;0.30;0.30;;;;;;;6.91;89.30;100172.22;5084735;28;20145;-72
2020/12/16 01:54:46;;;;;;;1.27;1.27;;;;;;;6.91;89.35;100178.25;5084798;28;20483;-72
2020/12/16 01:57:17;;;;;;;8.45;2.67;;;;;;;6.90;89.39;100173.94;5084421;28;20029;-72
2020/12/16 01:59:45;;;;;;;0.45;0.45;;;;;;;6.88;89.37;100185.13;5084289;28;20029;-72
2020/12/16 02:02:13;;;;;;;0.40;0.40;;;;;;;6.90;89.35;100175.66;5083995;28;20048;-72
2020/12/16 02:04:43;;;;;;;0.30;0.30;;;;;;;6.89;89.44;100176.50;5084009;28;20024;-72
2020/12/16 02:07:10;;;;;;;0.30;0.30;;;;;;;6.84;89.23;100176.50;5084306;28;20020;-72
2020/12/16 02:09:41;;;;;;;0.57;0.57;;;;;;;6.92;89.54;100172.22;5083944;28;20101;-73
2020/12/16 02:12:09;;;;;;;0.40;0.40;;;;;;;6.94;89.43;100174.81;5084298;28;20021;-73
2020/12/16 02:14:35;;;;;;;0.30;0.30;;;;;;;6.97;89.45;100181.69;5084063;28;20036;-73
2020/12/16 02:17:00;;;;;;;0.40;0.40;;;;;;;6.96;89.54;100178.25;5084041;28;20069;-73
2020/12/16 02:19:32;;;;;;;0.40;0.40;;;;;;;6.93;89.36;100183.41;5083741;28;20050;-73
2020/12/16 02:21:57;;;;;;;;;;;;;;;6.93;89.19;100186.84;5084463;28;20028;-73
2020/12/16 02:24:27;;;;;;;1.00;1.00;;;;;;;6.85;89.40;100183.41;5083363;28;20004;-72
2020/12/16 02:26:52;;;;;;;0.43;0.43;;;;;;;6.82;89.31;100186.81;5083782;28;20028;-72
2020/12/16 02:29:19;;;;;;;0.30;0.30;;;;;;;6.83;89.24;100190.25;5082441;28;20043;-72
2020/12/16 02:31:46;;;;;;;0.40;0.40;;;;;;;6.82;89.59;100198.88;5083688;28;20035;-71
2020/12/16 02:34:12;;;;;;;0.30;0.30;;;;;;;6.76;89.55;100184.19;5083485;28;20027;-72
2020/12/16 02:36:37;;;;;;;0.30;0.30;;;;;;;6.85;89.34;100190.25;5083588;28;20078;-73
2020/12/16 02:39:02;;;;;;;0.63;0.63;;;;;;;6.81;89.44;100189.38;5083639;28;20047;-73
2020/12/16 02:41:28;;;;;;;0.30;0.30;;;;;;;6.87;89.34;100191.97;5083851;28;20024;-73
2020/12/16 02:43:53;;;;;;;0.30;0.30;;;;;;;6.84;89.49;100191.97;5083534;28;20059;-73
2020/12/16 02:46:19;;;;;;;0.30;0.30;;;;;;;6.88;89.35;100198.88;5083507;28;20025;-72
2020/12/16 02:48:45;;;;;;;0.30;0.30;;;;;;;6.84;89.43;100189.38;5083274;28;20028;-74
2020/12/16 02:51:10;;;;;;;0.40;0.40;;;;;;;6.79;89.43;100188.50;5083542;28;20093;-73
2020/12/16 02:53:36;;;;;;;0.30;0.30;;;;;;;6.82;89.39;100196.28;5083596;28;20116;-73
2020/12/16 02:56:01;;;;;;;0.30;0.30;;;;;;;6.81;89.33;100197.13;5083593;28;20203;-74
2020/12/16 02:58:27;;;;;;;0.40;0.40;;;;;;;6.79;89.38;100191.97;5083564;28;20107;-73
2020/12/16 03:00:53;;;;;;;0.40;0.40;;;;;;;6.86;89.47;100194.56;5082093;28;20016;-73
2020/12/16 03:03:18;;;;;;;0.20;0.20;;;;;;;6.84;89.34;100194.56;5082945;28;20080;-72
2020/12/16 03:05:44;;;;;;;0.30;0.30;;;;;;;6.90;89.56;100204.88;5083323;28;20016;-72
2020/12/16 03:08:10;;;;;;;0.30;0.30;;;;;;;6.87;89.54;100202.31;5083493;28;20040;-72
2020/12/16 03:10:37;;;;;;;0.30;0.30;;;;;;;6.90;89.34;100196.31;5083130;28;20049;-72
2020/12/16 03:13:03;;;;;;;18.83;2.30;;;;;;;6.88;89.36;100204.03;5083365;28;20059;-73
2020/12/16 03:15:28;;;;;;;0.93;0.93;;;;;;;6.89;89.49;100200.59;5083215;28;20039;-72
2020/12/16 03:17:54;;;;;;;0.30;0.30;;;;;;;6.87;89.45;100207.47;5083099;28;20017;-72
2020/12/16 03:20:19;;;;;;;0.30;0.30;;;;;;;6.87;89.31;100219.53;5083330;28;20027;-73
2020/12/16 03:22:44;;;;;;;0.30;0.30;;;;;;;6.84;89.46;100210.03;5083220;28;20186;-73
2020/12/16 03:25:10;;;;;;;0.30;0.30;;;;;;;6.80;89.22;100221.22;5083226;28;20050;-73
2020/12/16 03:27:36;;;;;;;0.65;0.65;;;;;;;6.81;89.31;100228.09;5083065;28;20104;-73
2020/12/16 03:30:02;;;;;;;0.50;0.50;;;;;;;6.78;89.27;100228.06;5083047;28;20218;-74
2020/12/16 03:32:27;;;;;;;0.30;0.30;;;;;;;6.80;89.32;100218.63;5081031;28;20758;-72
2020/12/16 03:34:53;;;;;;;0.30;0.30;;;;;;;6.81;89.36;100225.50;5083053;28;20032;-73
2020/12/16 03:37:18;;;;;;;0.30;0.30;;;;;;;6.79;89.47;100234.94;5083112;28;20017;-73
2020/12/16 03:39:43;;;;;;;0.68;0.68;;;;;;;6.84;89.32;100247.91;5086903;28;20055;-73
2020/12/16 03:42:10;;;;;;;0.30;0.30;;;;;;;6.82;89.23;100240.16;5086960;28;20032;-73
2020/12/16 03:44:36;;;;;;;1.50;1.42;;;;;;;6.77;89.49;100242.69;5087043;28;20032;-73
2020/12/16 03:47:01;;;;;;;0.30;0.30;;;;;;;6.82;89.37;100245.31;5086885;28;20016;-74
2020/12/16 03:49:26;;;;;;;0.30;0.30;;;;;;;6.81;89.32;100257.34;5086220;28;20017;-73
2020/12/16 03:51:53;;;;;;;1.25;1.25;;;;;;;6.80;89.44;100258.22;5086836;28;20477;-72
2020/12/16 03:54:18;;;;;;;0.40;0.40;;;;;;;6.81;89.46;100253.88;5085221;28;20020;-73
2020/12/16 03:56:44;;;;;;;0.32;0.32;;;;;;;6.80;89.45;100260.78;5086631;28;20050;-72
2020/12/16 03:59:12;;;;;;;0.30;0.30;;;;;;;6.82;89.56;100250.47;5086413;28;20020;-70
2020/12/16 04:01:37;;;;;;;0.30;0.30;;;;;;;6.85;89.73;100259.94;5086342;28;20259;-72
2020/12/16 04:04:03;;;;;;;0.40;0.40;;;;;;;6.85;89.53;100255.66;5086376;28;20340;-70
2020/12/16 04:06:29;;;;;;;0.30;0.30;;;;;;;6.86;89.44;100254.78;5086538;28;20028;-71
2020/12/16 04:08:54;;;;;;;0.30;0.30;;;;;;;6.91;89.50;100259.97;5086231;28;20598;-72
2020/12/16 04:11:20;;;;;;;0.40;0.40;;;;;;;6.91;89.56;100254.81;5086460;28;20100;-72
2020/12/16 04:13:46;;;;;;;0.20;0.20;;;;;;;6.89;89.29;100259.97;5086271;28;20020;-72
2020/12/16 04:16:14;;;;;;;0.30;0.30;;;;;;;6.89;89.57;100267.69;5086397;28;20267;-71
2020/12/16 04:18:39;;;;;;;0.30;0.30;;;;;;;6.88;89.28;100276.31;5085817;28;20338;-71
2020/12/16 04:21:06;;;;;;;2.40;2.30;;;;;;;6.89;89.39;100272.84;5086286;28;20042;-72
2020/12/16 04:23:31;;;;;;;0.40;0.40;;;;;;;6.89;89.53;100272.00;5086195;28;20043;-71
2020/12/16 04:25:57;;;;;;;0.40;0.40;;;;;;;6.89;89.39;100272.84;5086235;28;20028;-71
2020/12/16 04:28:22;;;;;;;0.30;0.30;;;;;;;6.90;89.53;100279.75;5084645;28;20052;-71
2020/12/16 04:30:47;;;;;;;0.30;0.30;;;;;;;6.93;89.60;100278.91;5086278;28;20031;-71
2020/12/16 04:33:13;;;;;;;0.40;0.40;;;;;;;6.97;89.43;100284.91;5084395;28;20244;-70
2020/12/16 04:35:38;;;;;;;0.57;0.57;;;;;;;6.97;89.63;100285.78;5086209;28;20033;-71
2020/12/16 04:38:04;;;;;;;0.75;0.75;;;;;;;6.98;89.47;100292.66;5085937;28;20028;-70
2020/12/16 04:40:29;;;;;;;0.32;0.32;;;;;;;6.99;89.52;100301.28;5085996;28;20070;-71
2020/12/16 04:43:00;;;;;;;0.47;0.47;;;;;;;7.02;89.57;100306.47;5085810;28;20520;-71
2020/12/16 04:45:26;;;;;;;0.30;0.30;;;;;;;7.04;89.26;100302.19;5085915;28;20021;-71
2020/12/16 04:47:51;;;;;;;0.30;0.30;;;;;;;7.06;89.42;100306.47;5085171;28;20025;-70
2020/12/16 04:50:17;;;;;;;0.30;0.30;;;;;;;7.02;88.95;100303.88;5085759;28;20051;-71
2020/12/16 04:52:47;;;;;;;0.30;0.30;;;;;;;6.99;89.12;100309.91;5085730;28;20108;-71
2020/12/16 04:55:14;;;;;;;4.13;1.65;;;;;;;6.96;89.29;100321.94;5085680;28;20025;-71
2020/12/16 04:57:40;;;;;;;0.30;0.30;;;;;;;6.93;89.43;100321.03;5085632;28;20017;-70
2020/12/16 05:00:07;;;;;;;0.63;0.63;;;;;;;6.96;89.38;100329.66;5085740;28;20052;-72
2020/12/16 05:02:32;;;;;;;0.30;0.30;;;;;;;6.94;89.32;100327.94;5085303;28;20050;-72
2020/12/16 05:04:59;;;;;;;0.32;0.32;;;;;;;6.96;89.42;100333.13;5085590;28;20048;-70
2020/12/16 05:07:28;;;;;;;1.30;1.27;;;;;;;6.97;89.31;100337.41;5085444;28;20420;-72
2020/12/16 05:09:53;;;;;;;0.30;0.30;;;;;;;7.01;89.38;100338.31;5085316;28;20456;-74
2020/12/16 05:12:24;;;;;;;0.75;0.75;;;;;;;7.00;89.18;100339.13;5085496;28;20020;-72
2020/12/16 05:14:49;;;;;;;0.30;0.30;;;;;;;7.05;89.26;100329.72;5085675;28;20295;-73
2020/12/16 05:17:15;;;;;;;1.20;1.20;;;;;;;7.03;89.38;100321.09;5085623;28;20012;-73
2020/12/16 05:19:41;;;;;;;0.30;0.30;;;;;;;6.99;89.29;100324.53;5084949;28;20115;-74
2020/12/16 05:22:13;;;;;;;0.38;0.38;;;;;;;7.02;89.40;100337.44;5085270;28;20027;-74
2020/12/16 05:24:39;;;;;;;0.30;0.30;;;;;;;7.02;89.14;100340.03;5085174;28;20085;-76
2020/12/16 05:27:07;;;;;;;0.30;0.30;;;;;;;6.98;89.30;100336.56;5085210;28;20044;-74
2020/12/16 05:29:33;;;;;;;0.30;0.30;;;;;;;6.98;89.32;100336.56;5085053;28;20016;-75
2020/12/16 05:32:13;;;;;;;0.60;0.60;;;;;;;7.02;89.31;100337.44;5085091;28;20030;-75
2020/12/16 05:34:39;;;;;;;0.40;0.40;;;;;;;7.02;89.41;100329.69;5084714;28;20449;-76
2020/12/16 05:37:35;;;;;;;0.30;0.30;;;;;;;7.00;89.35;100331.41;5084907;28;20059;-74
2020/12/16 05:40:05;;;;;;;0.77;0.77;;;;;;;7.03;89.43;100344.31;5083845;28;20203;-74
2020/12/16 05:42:31;;;;;;;2.38;2.28;;;;;;;7.04;89.34;100349.53;5083781;28;20020;-72
2020/12/16 05:44:59;;;;;;;0.30;0.30;;;;;;;7.05;89.27;100365.84;5084338;28;20032;-74
2020/12/16 05:47:25;;;;;;;0.30;0.30;;;;;;;7.06;89.24;100367.59;5084754;28;20025;-74
2020/12/16 05:49:51;;;;;;;0.90;0.90;;;;;;;7.04;89.36;100371.88;5084219;28;20021;-73
2020/12/16 05:52:17;;;;;;;0.20;0.20;;;;;;;7.07;89.07;100377.94;5084783;28;20434;-73
2020/12/16 05:54:47;;;;;;;0.30;0.30;;;;;;;7.09;89.38;100382.22;5085081;28;20096;-74
2020/12/16 05:57:20;;;;;;;0.30;0.30;;;;;;;6.91;89.10;100352.88;5083961;28;20017;-76
2020/12/16 06:00:05;;;;;;;39.10;3.53;;;;;;;7.08;89.37;100383.94;5084067;28;20031;-77
2020/12/16 06:02:39;;;;;;;0.30;0.30;;;;;;;7.07;89.24;100388.25;5084792;28;20044;-74
2020/12/16 06:05:09;;;;;;;0.30;0.30;;;;;;;7.06;89.01;100377.94;5084915;28;20020;-76
2020/12/16 06:07:39;;;;;;;0.38;0.38;;;;;;;7.03;89.16;100383.91;5084776;28;20036;-74
2020/12/16 06:10:06;;;;;;;0.30;0.30;;;;;;;7.04;89.11;100387.38;5084700;28;20024;-74
2020/12/16 06:12:34;;;;;;;0.30;0.30;;;;;;;7.02;89.24;100384.78;5084922;28;20024;-75
2020/12/16 06:15:16;;;;;;;0.30;0.30;;;;;;;7.06;89.30;100390.84;5084736;28;20031;-75
2020/12/16 06:17:46;;;;;;;1.95;1.85;;;;;;;7.05;89.24;100389.09;5084244;28;20020;-75
2020/12/16 06:20:14;;;;;;;0.30;0.30;;;;;;;7.02;89.11;100391.66;5084289;28;20040;-76
2020/12/16 06:22:42;;;;;;;0.30;0.30;;;;;;;7.02;89.12;100391.66;5084346;28;20034;-75
2020/12/16 06:25:09;;;;;;;0.30;0.30;;;;;;;7.05;89.29;100379.63;5084616;28;20044;-77
2020/12/16 06:27:46;;;;;;;0.30;0.30;;;;;;;7.06;89.25;100396.00;5084342;28;20025;-77
2020/12/16 06:30:29;;;;;;;0.30;0.30;;;;;;;7.05;89.18;100392.53;5084307;28;20027;-76
2020/12/16 06:33:20;;;;;;;1.50;1.42;;;;;;;7.09;88.99;100402.88;5084057;28;20070;-76
2020/12/16 06:35:47;;;;;;;0.30;0.30;;;;;;;7.07;88.86;100410.63;5084407;28;20013;-76
2020/12/16 06:38:23;;;;;;;0.32;0.32;;;;;;;7.02;88.96;100417.47;5084357;28;20039;-77
2020/12/16 06:40:51;;;;;;;0.30;0.30;;;;;;;7.05;89.18;100423.50;5082606;28;20421;-76
2020/12/16 06:43:31;;;;;;;0.30;0.30;;;;;;;7.04;88.90;100436.41;5084247;28;20051;-76
2020/12/16 06:45:58;;;;;;;0.30;0.30;;;;;;;7.08;88.75;100440.72;5084140;28;20028;-78
2020/12/16 06:48:37;;;;;;;0.40;0.40;;;;;;;7.07;88.98;100428.69;5083640;28;20033;-76
2020/12/16 06:51:21;;;;;;;0.52;0.52;;;;;;;7.02;88.84;100422.63;5083973;28;20028;-76
2020/12/16 06:53:48;;;;;;;0.30;0.30;;;;;;;7.02;88.98;100426.09;5084030;28;20031;-76
2020/12/16 06:56:19;;;;;;;0.30;0.30;;;;;;;6.98;88.93;100429.47;5083986;28;20084;-76
2020/12/16 06:58:45;;;;;;;0.30;0.30;;;;;;;6.97;88.85;100429.47;5084128;28;20077;-78
2020/12/16 07:01:16;;;;;;;0.30;0.30;;;;;;;6.92;88.92;100432.88;5083957;28;20124;-75
2020/12/16 07:03:42;;;;;;;0.30;0.30;;;;;;;6.95;88.85;100426.88;5082081;28;20086;-76
2020/12/16 07:06:32;;;;;;;0.30;0.30;;;;;;;6.97;88.73;100419.13;5083907;28;20080;-76
2020/12/16 07:09:12;;;;;;;0.40;0.40;;;;;;;6.90;88.75;100403.63;5072775;28;20048;-76
2020/12/16 07:11:41;;;;;;;0.30;0.30;;;;;;;6.88;88.81;100410.50;5083671;28;20082;-76
2020/12/16 07:14:15;;;;;;;0.30;0.30;;;;;;;6.89;88.49;100407.06;5082430;28;20027;-77
2020/12/16 07:16:41;;;;;;;0.30;0.30;;;;;;;6.84;88.68;100398.41;5083903;28;20348;-76
2020/12/16 07:19:07;;;;;;;0.30;0.30;;;;;;;6.80;88.58;100401.84;5083340;28;20046;-77
2020/12/16 07:21:33;;;;;;;0.30;0.30;;;;;;;6.78;88.61;100399.25;5083767;28;20075;-76
2020/12/16 07:24:10;;;;;;;0.30;0.30;;;;;;;6.71;88.39;100414.69;5083521;28;20059;-75
2020/12/16 07:26:46;;;;;;;0.40;0.40;;;;;;;6.65;88.40;100423.22;5083981;28;20024;-76
2020/12/16 07:29:28;;;;;;;0.30;0.30;;;;;;;6.63;88.38;100433.53;5083558;28;20020;-75
2020/12/16 07:31:56;;;;;;;;;;;;;;;6.61;88.36;100439.53;5083982;28;20089;-76
2020/12/16 07:34:22;;;;;;;0.30;0.30;;;;;;;6.55;88.66;100442.94;5081761;28;19909;-76
2020/12/16 07:36:53;;;;;;;0.30;0.30;;;;;;;6.57;88.63;100457.56;5083250;28;20043;-75
2020/12/16 07:39:19;;;;;;;0.40;0.40;;;;;;;6.58;88.75;100461.03;5083323;28;20024;-75
2020/12/16 07:41:45;;;;;;;0.88;0.88;;;;;;;6.54;89.00;100449.81;5083359;28;20442;-76
2020/12/16 07:44:11;;;;;;;1.83;0.95;;;;;;;6.59;89.16;100465.31;5083146;28;20495;-76
2020/12/16 07:46:36;;;;;;;0.30;0.30;;;;;;;6.59;89.08;100465.31;5083068;28;20048;-76
2020/12/16 07:49:02;;;;;;;0.30;0.30;;;;;;;6.53;89.03;100462.69;5082595;28;20029;-76
2020/12/16 07:51:27;;;;;;;0.30;0.30;;;;;;;6.62;88.95;100467.03;5081884;28;20025;-76
2020/12/16 07:53:53;;;;;;;0.40;0.40;;;;;;;6.58;89.04;100458.44;5083007;28;20024;-77
2020/12/16 07:56:20;;;;;;;0.30;0.30;;;;;;;6.62;88.96;100475.66;5083052;28;20441;-76
2020/12/16 07:58:46;;;;;;;0.57;0.57;;;;;;;6.57;88.87;100473.03;5081535;28;20042;-76
2020/12/16 08:01:16;;;;;;;0.65;0.65;;;;;;;6.64;88.94;100468.81;5082958;28;20070;-75
2020/12/16 08:03:43;;;;;;;0.30;0.30;;;;;;;6.45;88.85;100435.09;5082456;28;20060;-74
2020/12/16 08:06:09;;;;;;;0.30;0.30;;;;;;;6.64;88.74;100462.78;5082921;28;20417;-74
2020/12/16 08:08:55;;;;;;;0.30;0.30;;;;;;;6.69;88.71;100471.44;5082690;28;20488;-74
2020/12/16 08:11:26;;;;;;;0.30;0.30;;;;;;;6.68;88.71;100474.84;5081396;28;20035;-73
2020/12/16 08:14:06;;;;;;;0.47;0.47;;;;;;;6.63;88.70;100476.53;5082792;28;20097;-73
2020/12/16 08:16:32;;;;;;;0.30;0.30;;;;;;;6.71;88.67;100486.91;5082808;28;20024;-74
2020/12/16 08:18:58;;;;;;;0.20;0.20;;;;;;;6.51;88.69;100457.50;5082122;28;20044;-72
2020/12/16 08:21:24;;;;;;;0.32;0.32;;;;;;;6.73;88.70;100470.59;5082771;28;20100;-73
2020/12/16 08:23:51;;;;;;;0.30;0.30;;;;;;;6.71;88.55;100468.84;5083533;28;20031;-73
2020/12/16 08:26:17;;;;;;;1.85;1.77;;;;;;;6.74;88.41;100489.53;5086353;28;20025;-72
2020/12/16 08:28:43;;;;;;;1.60;1.58;;;;;;;6.75;88.56;100489.53;5085601;28;20248;-72
2020/12/16 08:31:10;;;;;;;0.30;0.30;;;;;;;6.77;88.65;100494.72;5085212;28;20020;-71
2020/12/16 08:33:37;;;;;;;0.20;0.20;;;;;;;6.75;88.66;100484.38;5085262;28;20032;-71
2020/12/16 08:36:09;;;;;;;0.30;0.30;;;;;;;6.81;88.52;100501.63;5084824;28;20028;-71
2020/12/16 08:38:39;;;;;;;0.40;0.40;;;;;;;6.82;88.71;100499.03;5085993;28;20016;-71
2020/12/16 08:41:08;;;;;;;0.30;0.30;;;;;;;6.80;88.72;100505.06;5085884;28;20024;-71
2020/12/16 08:43:38;;;;;;;0.57;0.57;;;;;;;6.87;88.74;100512.00;5084498;28;20385;-71
2020/12/16 08:46:12;;;;;;;0.30;0.30;;;;;;;6.91;88.69;100511.19;5086077;28;20016;-71
2020/12/16 08:49:01;;;;;;;0.30;0.30;;;;;;;6.99;88.68;100523.28;5085495;28;20028;-70
2020/12/16 08:51:47;;;;;;;0.30;0.30;;;;;;;7.03;88.79;100522.44;5085629;28;20124;-71
2020/12/16 08:54:24;;;;;;;1.48;1.38;;;;;;;7.04;88.75;100519.03;5085624;28;20364;-71
2020/12/16 08:56:52;;;;;;;0.30;0.30;;;;;;;7.09;88.83;100517.34;5085545;28;20031;-71
2020/12/16 08:59:18;;;;;;;15.93;2.92;;;;;;;7.08;88.61;100518.19;5085467;28;20025;-72
2020/12/16 09:01:44;;;;;;;0.30;0.30;;;;;;;7.11;88.72;100518.22;5083955;28;20024;-71
2020/12/16 09:04:11;;;;;;;0.30;0.30;;;;;;;7.15;88.57;100527.72;5083823;28;20032;-71
2020/12/16 09:06:37;;;;;;;0.50;0.50;;;;;;;7.14;88.51;100519.97;5084103;28;20028;-72
2020/12/16 09:09:15;;;;;;;0.30;0.30;;;;;;;7.21;88.58;100536.34;5085414;28;20044;-71
2020/12/16 09:11:47;;;;;;;0.20;0.20;;;;;;;7.27;88.50;100546.72;5084010;28;20487;-72
2020/12/16 09:14:15;;;;;;;0.30;0.30;;;;;;;7.23;88.25;100547.56;5083958;28;20389;-73
2020/12/16 09:16:41;;;;;;;0.30;0.30;;;;;;;7.30;88.43;100552.78;5083733;28;20095;-71
2020/12/16 09:19:06;;;;;;;0.30;0.30;;;;;;;7.35;88.10;100541.63;5084684;28;20028;-72
2020/12/16 09:21:34;;;;;;;0.30;0.30;;;;;;;7.36;88.23;100557.16;5083632;28;20016;-72
2020/12/16 09:24:05;;;;;;;0.20;0.20;;;;;;;7.30;88.21;100552.78;5083873;28;20020;-72
2020/12/16 09:26:40;;;;;;;0.30;0.30;;;;;;;7.41;88.20;100576.09;5067381;28;20028;-73
2020/12/16 09:29:16;;;;;;;0.30;0.30;;;;;;;7.41;88.08;100585.59;5084920;28;20029;-73
2020/12/16 09:31:42;;;;;;;0.30;0.30;;;;;;;7.37;88.13;100581.22;5085008;28;20043;-74
2020/12/16 09:34:07;;;;;;;1.15;1.15;;;;;;;7.40;88.06;100599.34;5083641;28;20029;-73
2020/12/16 09:36:32;;;;;;;0.30;0.30;;;;;;;7.40;88.07;100604.50;5084687;28;20021;-73
2020/12/16 09:39:00;;;;;;;0.30;0.30;;;;;;;7.38;88.12;100608.81;5084936;28;20025;-74
2020/12/16 09:41:27;;;;;;;0.30;0.30;;;;;;;7.32;87.95;100610.50;5083697;28;20021;-73
2020/12/16 09:43:52;;;;;;;0.30;0.30;;;;;;;7.34;88.10;100610.50;5084132;28;20028;-72
2020/12/16 09:46:23;;;;;;;0.30;0.30;;;;;;;7.28;87.86;100601.00;5084952;28;20082;-74
2020/12/16 09:48:50;;;;;;;0.30;0.30;;;;;;;7.26;87.77;100607.84;5083213;28;20111;-73
2020/12/16 09:51:18;;;;;;;0.47;0.47;;;;;;;7.17;88.09;100603.47;5085156;28;20031;-74
2020/12/16 09:53:44;;;;;;;0.30;0.30;;;;;;;7.18;87.69;100600.03;5085029;28;20020;-73
2020/12/16 09:56:21;;;;;;;0.30;0.30;;;;;;;7.17;87.32;100620.69;5085931;28;20059;-74
2020/12/16 09:58:47;;;;;;;0.30;0.30;;;;;;;7.08;87.54;100613.72;5095590;28;20013;-73
2020/12/16 10:01:12;;;;;;;0.30;0.30;;;;;;;7.05;87.79;100624.88;5094323;28;20031;-73
2020/12/16 10:03:38;;;;;;;0.30;0.30;;;;;;;7.07;87.73;100617.16;5086877;28;20105;-73
2020/12/16 10:06:05;;;;;;;0.30;0.30;;;;;;;7.01;87.50;100635.16;5086791;28;20028;-71
2020/12/16 10:08:31;;;;;;;0.30;0.30;;;;;;;6.92;87.65;100634.22;5084061;28;20021;-72
2020/12/16 10:10:56;;;;;;;0.30;0.30;;;;;;;6.84;87.65;100640.16;5084156;28;20035;-73
2020/12/16 10:13:22;;;;;;;0.30;0.30;;;;;;;6.76;87.69;100632.31;5084402;28;20020;-73
2020/12/16 10:15:48;;;;;;;0.30;0.30;;;;;;;6.68;87.99;100634.81;5084148;28;20029;-74
2020/12/16 10:18:13;;;;;;;0.30;0.30;;;;;;;6.64;87.97;100633.91;5082346;28;20016;-74
2020/12/16 10:20:39;;;;;;;0.30;0.30;;;;;;;6.67;88.15;100654.59;5084017;28;20116;-75
2020/12/16 10:23:06;;;;;;;0.30;0.30;;;;;;;6.56;88.00;100638.13;5084095;28;20078;-75
2020/12/16 10:25:31;;;;;;;0.30;0.30;;;;;;;6.60;88.18;100660.50;5082634;28;20092;-75
2020/12/16 10:27:57;;;;;;;0.40;0.40;;;;;;;6.60;87.93;100651.94;5084020;28;20044;-76
2020/12/16 10:30:25;;;;;;;0.30;0.30;;;;;;;6.52;87.73;100659.53;5084064;28;20029;-74
2020/12/16 10:32:53;;;;;;;0.57;0.57;;;;;;;6.42;87.84;100663.75;5082986;28;20076;-74
2020/12/16 10:35:18;;;;;;;0.30;0.30;;;;;;;6.31;88.04;100669.63;5082717;28;20032;-75
2020/12/16 10:37:45;;;;;;;0.20;0.20;;;;;;;6.26;88.06;100681.56;5083735;28;20017;-75
2020/12/16 10:40:11;;;;;;;0.30;0.30;;;;;;;6.23;88.37;100683.25;5083643;28;20033;-75
2020/12/16 10:42:36;;;;;;;0.30;0.30;;;;;;;6.11;88.09;100669.34;5083725;28;20031;-75
2020/12/16 10:45:03;;;;;;;0.30;0.30;;;;;;;6.12;88.30;100676.22;5083607;28;20028;-76
2020/12/16 10:47:29;;;;;;;0.30;0.30;;;;;;;6.13;88.54;100677.09;5083204;28;20052;-74
2020/12/16 10:49:54;;;;;;;0.30;0.30;;;;;;;6.11;88.33;100674.50;5081893;28;20507;-75
2020/12/16 10:52:20;;;;;;;0.20;0.20;;;;;;;6.10;88.49;100679.63;5082424;28;20021;-75
2020/12/16 10:54:45;;;;;;;0.30;0.30;;;;;;;6.11;88.58;100684.81;5083582;28;20025;-74
2020/12/16 10:57:10;;;;;;;0.30;0.30;;;;;;;6.07;88.77;100677.91;5083809;28;20107;-74
2020/12/16 10:59:36;;;;;;;0.30;0.30;;;;;;;6.08;88.80;100684.78;5082220;28;20031;-75
2020/12/16 11:02:02;;;;;;;0.30;0.30;;;;;;;6.13;88.66;100692.56;5083330;28;20066;-74
2020/12/16 11:04:31;;;;;;;0.30;0.30;;;;;;;6.10;88.66;100683.09;5083082;28;20081;-74
2020/12/16 11:06:56;;;;;;;0.40;0.40;;;;;;;6.14;88.94;100690.00;5083268;28;20354;-74
2020/12/16 11:09:23;;;;;;;0.30;0.30;;;;;;;6.20;88.73;100700.41;5083082;28;20050;-74
2020/12/16 11:11:53;;;;;;;0.30;0.30;;;;;;;6.17;89.09;100687.47;5083504;28;20035;-74
2020/12/16 11:14:19;;;;;;;0.35;0.35;;;;;;;6.22;88.74;100691.81;5082116;28;20024;-74
2020/12/16 11:16:45;;;;;;;0.30;0.30;;;;;;;6.18;88.59;100691.78;5083473;28;20027;-74
2020/12/16 11:19:12;;;;;;;0.30;0.30;;;;;;;6.18;88.73;100702.09;5082936;28;20032;-74
2020/12/16 11:21:39;;;;;;;0.30;0.30;;;;;;;6.26;88.82;100701.34;5081776;28;20032;-74
2020/12/16 11:24:08;;;;;;;0.30;0.30;;;;;;;6.23;88.72;100703.88;5083170;28;20020;-73
2020/12/16 11:26:42;;;;;;;0.68;0.65;;;;;;;6.24;88.97;100705.63;5083244;28;20020;-74
2020/12/16 11:29:08;;;;;;;0.30;0.30;;;;;;;6.22;88.80;100703.00;5083469;28;20028;-74
2020/12/16 11:31:41;;;;;;;0.88;0.88;;;;;;;6.24;88.78;100708.19;5083090;28;20032;-74
2020/12/16 11:34:08;;;;;;;0.30;0.30;;;;;;;6.31;89.01;100716.03;5082989;28;20044;-73
2020/12/16 11:36:35;;;;;;;0.30;0.30;;;;;;;6.29;89.09;100706.56;5083052;28;20021;-73